sensor_id;sensor_type;location;lat;lon;timestamp;P1;durP1;ratioP1;P2;durP2;ratioP2
21798;SDS011;24973;47.178;15.316;2023-04-09T00:00:19;18.03;;;13.37;;
21798;SDS011;24973;47.178;15.316;2023-04-09T00:03:10;16.60;;;14.47;;
21798;SDS011;24973;47.178;15.316;2023-04-09T00:05:59;21.73;;;14.57;;
21798;SDS011;24973;47.178;15.316;2023-04-09T00:08:47;17.23;;;13.23;;
21798;SDS011;24973;47.178;15.316;2023-04-09T00:11:36;19.70;;;13.60;;
21798;SDS011;24973;47.178;15.316;2023-04-09T00:14:25;16.77;;;13.80;;
21798;SDS011;24973;47.178;15.316;2023-04-09T00:17:13;20.37;;;14.43;;
21798;SDS011;24973;47.178;15.316;2023-04-09T00:20:04;17.90;;;13.67;;
21798;SDS011;24973;47.178;15.316;2023-04-09T00:22:54;18.60;;;15.03;;
21798;SDS011;24973;47.178;15.316;2023-04-09T00:25:43;19.50;;;14.60;;
21798;SDS011;24973;47.178;15.316;2023-04-09T00:28:32;21.47;;;16.10;;
21798;SDS011;24973;47.178;15.316;2023-04-09T00:31:21;19.57;;;14.43;;
21798;SDS011;24973;47.178;15.316;2023-04-09T00:34:10;17.50;;;13.73;;
21798;SDS011;24973;47.178;15.316;2023-04-09T00:37:00;18.83;;;15.67;;
21798;SDS011;24973;47.178;15.316;2023-04-09T00:39:49;16.43;;;14.43;;
21798;SDS011;24973;47.178;15.316;2023-04-09T00:42:37;21.27;;;15.03;;
21798;SDS011;24973;47.178;15.316;2023-04-09T00:45:27;20.87;;;15.90;;
21798;SDS011;24973;47.178;15.316;2023-04-09T00:48:16;21.50;;;14.17;;
21798;SDS011;24973;47.178;15.316;2023-04-09T00:51:05;20.10;;;13.87;;
21798;SDS011;24973;47.178;15.316;2023-04-09T00:53:56;20.90;;;14.43;;
21798;SDS011;24973;47.178;15.316;2023-04-09T00:56:45;22.93;;;13.50;;
21798;SDS011;24973;47.178;15.316;2023-04-09T00:59:35;17.67;;;14.77;;
21798;SDS011;24973;47.178;15.316;2023-04-09T01:02:23;20.00;;;15.47;;
21798;SDS011;24973;47.178;15.316;2023-04-09T01:05:13;19.80;;;14.17;;
21798;SDS011;24973;47.178;15.316;2023-04-09T01:08:03;16.73;;;13.97;;
21798;SDS011;24973;47.178;15.316;2023-04-09T01:11:05;22.43;;;15.10;;
21798;SDS011;24973;47.178;15.316;2023-04-09T01:14:04;18.00;;;14.20;;
21798;SDS011;24973;47.178;15.316;2023-04-09T01:17:02;18.03;;;14.27;;
21798;SDS011;24973;47.178;15.316;2023-04-09T01:19:57;17.37;;;13.77;;
21798;SDS011;24973;47.178;15.316;2023-04-09T01:22:54;21.10;;;14.90;;
21798;SDS011;24973;47.178;15.316;2023-04-09T01:25:59;19.00;;;13.70;;
21798;SDS011;24973;47.178;15.316;2023-04-09T01:28:56;17.70;;;14.90;;
21798;SDS011;24973;47.178;15.316;2023-04-09T01:31:46;22.73;;;15.47;;
21798;SDS011;24973;47.178;15.316;2023-04-09T01:34:36;17.97;;;14.33;;
21798;SDS011;24973;47.178;15.316;2023-04-09T01:37:25;21.20;;;14.73;;
21798;SDS011;24973;47.178;15.316;2023-04-09T01:40:14;19.67;;;14.07;;
21798;SDS011;24973;47.178;15.316;2023-04-09T01:43:04;20.43;;;14.00;;
21798;SDS011;24973;47.178;15.316;2023-04-09T01:45:56;19.97;;;15.73;;
21798;SDS011;24973;47.178;15.316;2023-04-09T01:48:46;22.07;;;16.27;;
21798;SDS011;24973;47.178;15.316;2023-04-09T01:51:36;21.80;;;15.50;;
21798;SDS011;24973;47.178;15.316;2023-04-09T01:54:25;18.50;;;14.47;;
21798;SDS011;24973;47.178;15.316;2023-04-09T01:57:14;22.63;;;15.73;;
21798;SDS011;24973;47.178;15.316;2023-04-09T02:00:03;22.53;;;14.73;;
21798;SDS011;24973;47.178;15.316;2023-04-09T02:02:57;20.50;;;14.57;;
21798;SDS011;24973;47.178;15.316;2023-04-09T02:05:55;20.87;;;14.60;;
21798;SDS011;24973;47.178;15.316;2023-04-09T02:08:54;24.77;;;14.70;;
21798;SDS011;24973;47.178;15.316;2023-04-09T02:11:47;22.37;;;16.50;;
21798;SDS011;24973;47.178;15.316;2023-04-09T02:14:37;20.97;;;14.17;;
21798;SDS011;24973;47.178;15.316;2023-04-09T02:17:28;21.10;;;15.20;;
21798;SDS011;24973;47.178;15.316;2023-04-09T02:20:18;26.70;;;15.40;;
21798;SDS011;24973;47.178;15.316;2023-04-09T02:23:07;22.23;;;15.50;;
21798;SDS011;24973;47.178;15.316;2023-04-09T02:25:56;22.70;;;16.40;;
21798;SDS011;24973;47.178;15.316;2023-04-09T02:28:44;26.60;;;16.37;;
21798;SDS011;24973;47.178;15.316;2023-04-09T02:31:33;20.50;;;16.63;;
21798;SDS011;24973;47.178;15.316;2023-04-09T02:34:22;22.87;;;15.50;;
21798;SDS011;24973;47.178;15.316;2023-04-09T02:37:12;19.50;;;14.83;;
21798;SDS011;24973;47.178;15.316;2023-04-09T02:40:01;20.00;;;14.80;;
21798;SDS011;24973;47.178;15.316;2023-04-09T02:42:50;19.70;;;15.40;;
21798;SDS011;24973;47.178;15.316;2023-04-09T02:45:39;20.93;;;15.63;;
21798;SDS011;24973;47.178;15.316;2023-04-09T02:48:28;22.80;;;14.70;;
21798;SDS011;24973;47.178;15.316;2023-04-09T02:51:17;18.03;;;13.83;;
21798;SDS011;24973;47.178;15.316;2023-04-09T02:54:08;21.87;;;14.70;;
21798;SDS011;24973;47.178;15.316;2023-04-09T02:56:57;18.57;;;13.60;;
21798;SDS011;24973;47.178;15.316;2023-04-09T02:59:46;20.73;;;14.97;;
21798;SDS011;24973;47.178;15.316;2023-04-09T03:02:35;20.33;;;14.17;;
21798;SDS011;24973;47.178;15.316;2023-04-09T03:05:24;22.33;;;15.87;;
21798;SDS011;24973;47.178;15.316;2023-04-09T03:08:12;17.83;;;13.70;;
21798;SDS011;24973;47.178;15.316;2023-04-09T03:11:03;22.50;;;15.43;;
21798;SDS011;24973;47.178;15.316;2023-04-09T03:13:51;21.00;;;13.77;;
21798;SDS011;24973;47.178;15.316;2023-04-09T03:16:40;20.30;;;15.70;;
21798;SDS011;24973;47.178;15.316;2023-04-09T03:19:29;20.47;;;15.47;;
21798;SDS011;24973;47.178;15.316;2023-04-09T03:22:18;20.93;;;15.33;;
21798;SDS011;24973;47.178;15.316;2023-04-09T03:25:07;19.00;;;14.70;;
21798;SDS011;24973;47.178;15.316;2023-04-09T03:27:57;23.80;;;14.90;;
21798;SDS011;24973;47.178;15.316;2023-04-09T03:30:46;22.50;;;15.63;;
21798;SDS011;24973;47.178;15.316;2023-04-09T03:33:35;21.47;;;15.60;;
21798;SDS011;24973;47.178;15.316;2023-04-09T03:36:23;23.50;;;16.57;;
21798;SDS011;24973;47.178;15.316;2023-04-09T03:39:13;22.00;;;15.17;;
21798;SDS011;24973;47.178;15.316;2023-04-09T03:42:02;23.33;;;15.10;;
21798;SDS011;24973;47.178;15.316;2023-04-09T03:44:53;19.40;;;14.10;;
21798;SDS011;24973;47.178;15.316;2023-04-09T03:47:42;22.70;;;15.37;;
21798;SDS011;24973;47.178;15.316;2023-04-09T03:50:30;25.13;;;15.83;;
21798;SDS011;24973;47.178;15.316;2023-04-09T03:53:24;23.37;;;16.00;;
21798;SDS011;24973;47.178;15.316;2023-04-09T03:56:13;19.70;;;16.13;;
21798;SDS011;24973;47.178;15.316;2023-04-09T03:59:02;17.13;;;12.43;;
21798;SDS011;24973;47.178;15.316;2023-04-09T04:01:52;20.97;;;14.07;;
21798;SDS011;24973;47.178;15.316;2023-04-09T04:04:41;20.50;;;15.47;;
21798;SDS011;24973;47.178;15.316;2023-04-09T04:07:31;20.83;;;15.00;;
21798;SDS011;24973;47.178;15.316;2023-04-09T04:10:19;22.23;;;16.57;;
21798;SDS011;24973;47.178;15.316;2023-04-09T04:13:08;24.17;;;16.23;;
21798;SDS011;24973;47.178;15.316;2023-04-09T04:15:57;24.80;;;15.23;;
21798;SDS011;24973;47.178;15.316;2023-04-09T04:18:47;21.73;;;16.43;;
21798;SDS011;24973;47.178;15.316;2023-04-09T04:21:36;19.73;;;15.67;;
21798;SDS011;24973;47.178;15.316;2023-04-09T04:24:25;26.30;;;17.57;;
21798;SDS011;24973;47.178;15.316;2023-04-09T04:27:13;19.53;;;14.93;;
21798;SDS011;24973;47.178;15.316;2023-04-09T04:30:02;23.40;;;16.50;;
21798;SDS011;24973;47.178;15.316;2023-04-09T04:32:52;24.77;;;17.27;;
21798;SDS011;24973;47.178;15.316;2023-04-09T04:35:42;22.33;;;15.40;;
21798;SDS011;24973;47.178;15.316;2023-04-09T04:38:31;27.40;;;17.00;;
21798;SDS011;24973;47.178;15.316;2023-04-09T04:41:20;24.50;;;16.57;;
21798;SDS011;24973;47.178;15.316;2023-04-09T04:44:09;25.57;;;17.30;;
21798;SDS011;24973;47.178;15.316;2023-04-09T04:46:58;22.00;;;14.67;;
21798;SDS011;24973;47.178;15.316;2023-04-09T04:49:46;17.83;;;14.60;;
21798;SDS011;24973;47.178;15.316;2023-04-09T04:52:36;22.67;;;15.67;;
21798;SDS011;24973;47.178;15.316;2023-04-09T04:55:26;20.77;;;14.77;;
21798;SDS011;24973;47.178;15.316;2023-04-09T04:58:14;21.50;;;15.70;;
21798;SDS011;24973;47.178;15.316;2023-04-09T05:01:03;21.07;;;14.93;;
21798;SDS011;24973;47.178;15.316;2023-04-09T05:03:52;21.30;;;15.77;;
21798;SDS011;24973;47.178;15.316;2023-04-09T05:06:41;20.03;;;14.63;;
21798;SDS011;24973;47.178;15.316;2023-04-09T05:09:31;17.00;;;13.60;;
21798;SDS011;24973;47.178;15.316;2023-04-09T05:12:19;21.47;;;14.07;;
21798;SDS011;24973;47.178;15.316;2023-04-09T05:15:08;20.43;;;14.43;;
21798;SDS011;24973;47.178;15.316;2023-04-09T05:17:57;26.70;;;20.08;;
21798;SDS011;24973;47.178;15.316;2023-04-09T05:20:46;25.20;;;20.17;;
21798;SDS011;24973;47.178;15.316;2023-04-09T05:23:34;19.27;;;15.53;;
21798;SDS011;24973;47.178;15.316;2023-04-09T05:26:24;21.20;;;15.73;;
21798;SDS011;24973;47.178;15.316;2023-04-09T05:29:13;19.93;;;15.73;;
21798;SDS011;24973;47.178;15.316;2023-04-09T05:32:03;23.10;;;14.50;;
21798;SDS011;24973;47.178;15.316;2023-04-09T05:34:52;21.03;;;15.67;;
21798;SDS011;24973;47.178;15.316;2023-04-09T05:37:41;20.63;;;14.97;;
21798;SDS011;24973;47.178;15.316;2023-04-09T05:40:29;17.87;;;13.70;;
21798;SDS011;24973;47.178;15.316;2023-04-09T05:43:19;21.23;;;14.97;;
21798;SDS011;24973;47.178;15.316;2023-04-09T05:46:08;20.33;;;14.30;;
21798;SDS011;24973;47.178;15.316;2023-04-09T05:48:57;21.07;;;15.10;;
21798;SDS011;24973;47.178;15.316;2023-04-09T05:51:45;21.77;;;15.10;;
21798;SDS011;24973;47.178;15.316;2023-04-09T05:54:35;18.93;;;13.93;;
21798;SDS011;24973;47.178;15.316;2023-04-09T05:57:23;15.83;;;14.13;;
21798;SDS011;24973;47.178;15.316;2023-04-09T06:00:15;16.97;;;11.27;;
21798;SDS011;24973;47.178;15.316;2023-04-09T06:03:04;14.10;;;10.73;;
21798;SDS011;24973;47.178;15.316;2023-04-09T06:05:53;14.73;;;10.87;;
21798;SDS011;24973;47.178;15.316;2023-04-09T06:08:42;12.00;;;10.70;;
21798;SDS011;24973;47.178;15.316;2023-04-09T06:11:31;13.63;;;10.27;;
21798;SDS011;24973;47.178;15.316;2023-04-09T06:14:20;11.97;;;9.93;;
21798;SDS011;24973;47.178;15.316;2023-04-09T06:17:10;11.60;;;9.43;;
21798;SDS011;24973;47.178;15.316;2023-04-09T06:19:58;11.93;;;8.80;;
21798;SDS011;24973;47.178;15.316;2023-04-09T06:22:47;15.47;;;9.93;;
21798;SDS011;24973;47.178;15.316;2023-04-09T06:25:36;12.70;;;10.33;;
21798;SDS011;24973;47.178;15.316;2023-04-09T06:28:24;11.23;;;9.33;;
21798;SDS011;24973;47.178;15.316;2023-04-09T06:31:14;10.37;;;8.87;;
21798;SDS011;24973;47.178;15.316;2023-04-09T06:34:04;9.80;;;8.63;;
21798;SDS011;24973;47.178;15.316;2023-04-09T06:36:53;12.20;;;10.07;;
21798;SDS011;24973;47.178;15.316;2023-04-09T06:39:42;14.10;;;11.47;;
21798;SDS011;24973;47.178;15.316;2023-04-09T06:42:39;10.77;;;9.50;;
21798;SDS011;24973;47.178;15.316;2023-04-09T06:45:28;41.00;;;27.63;;
21798;SDS011;24973;47.178;15.316;2023-04-09T06:48:18;19.30;;;13.87;;
21798;SDS011;24973;47.178;15.316;2023-04-09T06:51:08;17.70;;;11.67;;
21798;SDS011;24973;47.178;15.316;2023-04-09T06:53:57;12.97;;;10.70;;
21798;SDS011;24973;47.178;15.316;2023-04-09T06:56:46;11.37;;;8.60;;
21798;SDS011;24973;47.178;15.316;2023-04-09T06:59:34;11.90;;;8.00;;
21798;SDS011;24973;47.178;15.316;2023-04-09T07:02:23;9.03;;;7.40;;
21798;SDS011;24973;47.178;15.316;2023-04-09T07:05:13;9.43;;;8.07;;
21798;SDS011;24973;47.178;15.316;2023-04-09T07:08:03;11.07;;;8.20;;
21798;SDS011;24973;47.178;15.316;2023-04-09T07:10:52;12.23;;;9.30;;
21798;SDS011;24973;47.178;15.316;2023-04-09T07:13:41;9.97;;;8.37;;
21798;SDS011;24973;47.178;15.316;2023-04-09T07:16:29;9.83;;;7.73;;
21798;SDS011;24973;47.178;15.316;2023-04-09T07:19:18;11.43;;;8.53;;
21798;SDS011;24973;47.178;15.316;2023-04-09T07:22:07;9.27;;;8.37;;
21798;SDS011;24973;47.178;15.316;2023-04-09T07:24:57;12.07;;;9.10;;
21798;SDS011;24973;47.178;15.316;2023-04-09T07:27:46;12.17;;;9.33;;
21798;SDS011;24973;47.178;15.316;2023-04-09T07:30:35;9.70;;;8.70;;
21798;SDS011;24973;47.178;15.316;2023-04-09T07:33:24;9.17;;;6.90;;
21798;SDS011;24973;47.178;15.316;2023-04-09T07:36:12;8.83;;;7.93;;
21798;SDS011;24973;47.178;15.316;2023-04-09T07:39:01;10.67;;;7.53;;
21798;SDS011;24973;47.178;15.316;2023-04-09T07:41:51;9.27;;;8.27;;
21798;SDS011;24973;47.178;15.316;2023-04-09T07:44:40;9.60;;;7.83;;
21798;SDS011;24973;47.178;15.316;2023-04-09T07:47:29;10.23;;;7.97;;
21798;SDS011;24973;47.178;15.316;2023-04-09T07:50:18;9.80;;;8.00;;
21798;SDS011;24973;47.178;15.316;2023-04-09T07:53:06;10.10;;;8.40;;
21798;SDS011;24973;47.178;15.316;2023-04-09T07:55:55;8.73;;;7.43;;
21798;SDS011;24973;47.178;15.316;2023-04-09T07:58:45;9.87;;;8.33;;
21798;SDS011;24973;47.178;15.316;2023-04-09T08:01:34;13.13;;;8.43;;
21798;SDS011;24973;47.178;15.316;2023-04-09T08:04:23;8.60;;;7.43;;
21798;SDS011;24973;47.178;15.316;2023-04-09T08:07:12;8.20;;;6.87;;
21798;SDS011;24973;47.178;15.316;2023-04-09T08:10:01;9.30;;;7.37;;
21798;SDS011;24973;47.178;15.316;2023-04-09T08:12:50;11.47;;;8.27;;
21798;SDS011;24973;47.178;15.316;2023-04-09T08:15:40;10.67;;;8.90;;
21798;SDS011;24973;47.178;15.316;2023-04-09T08:18:28;8.97;;;7.60;;
21798;SDS011;24973;47.178;15.316;2023-04-09T08:21:17;14.00;;;11.53;;
21798;SDS011;24973;47.178;15.316;2023-04-09T08:24:06;11.17;;;9.30;;
21798;SDS011;24973;47.178;15.316;2023-04-09T08:26:56;11.97;;;9.03;;
21798;SDS011;24973;47.178;15.316;2023-04-09T08:29:45;10.23;;;8.00;;
21798;SDS011;24973;47.178;15.316;2023-04-09T08:32:35;8.53;;;7.63;;
21798;SDS011;24973;47.178;15.316;2023-04-09T08:35:24;8.33;;;7.47;;
21798;SDS011;24973;47.178;15.316;2023-04-09T08:38:14;9.10;;;7.43;;
21798;SDS011;24973;47.178;15.316;2023-04-09T08:41:02;6.70;;;5.90;;
21798;SDS011;24973;47.178;15.316;2023-04-09T08:43:52;7.50;;;6.77;;
21798;SDS011;24973;47.178;15.316;2023-04-09T08:46:43;7.53;;;6.80;;
21798;SDS011;24973;47.178;15.316;2023-04-09T08:49:33;6.63;;;5.97;;
21798;SDS011;24973;47.178;15.316;2023-04-09T08:52:28;7.60;;;6.10;;
21798;SDS011;24973;47.178;15.316;2023-04-09T08:55:19;8.17;;;7.20;;
21798;SDS011;24973;47.178;15.316;2023-04-09T08:58:08;7.57;;;6.10;;
21798;SDS011;24973;47.178;15.316;2023-04-09T09:00:57;7.73;;;6.57;;
21798;SDS011;24973;47.178;15.316;2023-04-09T09:03:52;7.83;;;6.53;;
21798;SDS011;24973;47.178;15.316;2023-04-09T09:06:45;7.73;;;6.90;;
21798;SDS011;24973;47.178;15.316;2023-04-09T09:09:33;9.40;;;7.10;;
21798;SDS011;24973;47.178;15.316;2023-04-09T09:12:39;6.23;;;5.63;;
21798;SDS011;24973;47.178;15.316;2023-04-09T09:15:29;7.07;;;5.97;;
21798;SDS011;24973;47.178;15.316;2023-04-09T09:18:17;7.30;;;6.63;;
21798;SDS011;24973;47.178;15.316;2023-04-09T09:21:09;9.93;;;6.90;;
21798;SDS011;24973;47.178;15.316;2023-04-09T09:24:00;9.67;;;7.17;;
21798;SDS011;24973;47.178;15.316;2023-04-09T09:26:49;7.20;;;6.53;;
21798;SDS011;24973;47.178;15.316;2023-04-09T09:29:40;8.00;;;6.20;;
21798;SDS011;24973;47.178;15.316;2023-04-09T09:32:30;6.57;;;5.67;;
21798;SDS011;24973;47.178;15.316;2023-04-09T09:35:19;7.53;;;6.83;;
21798;SDS011;24973;47.178;15.316;2023-04-09T09:38:08;9.20;;;6.80;;
21798;SDS011;24973;47.178;15.316;2023-04-09T09:41:00;7.77;;;7.00;;
21798;SDS011;24973;47.178;15.316;2023-04-09T09:44:04;7.80;;;7.00;;
21798;SDS011;24973;47.178;15.316;2023-04-09T09:46:54;7.27;;;6.50;;
21798;SDS011;24973;47.178;15.316;2023-04-09T09:49:44;6.60;;;5.90;;
21798;SDS011;24973;47.178;15.316;2023-04-09T09:52:36;8.23;;;5.43;;
21798;SDS011;24973;47.178;15.316;2023-04-09T09:55:26;5.07;;;4.57;;
21798;SDS011;24973;47.178;15.316;2023-04-09T09:58:21;5.47;;;4.30;;
21798;SDS011;24973;47.178;15.316;2023-04-09T10:01:14;4.23;;;3.37;;
21798;SDS011;24973;47.178;15.316;2023-04-09T10:04:08;4.60;;;4.20;;
21798;SDS011;24973;47.178;15.316;2023-04-09T10:07:02;3.47;;;3.17;;
21798;SDS011;24973;47.178;15.316;2023-04-09T10:09:53;3.73;;;3.43;;
21798;SDS011;24973;47.178;15.316;2023-04-09T10:12:44;3.17;;;2.83;;
21798;SDS011;24973;47.178;15.316;2023-04-09T10:15:34;2.63;;;2.43;;
21798;SDS011;24973;47.178;15.316;2023-04-09T10:18:23;3.27;;;3.03;;
21798;SDS011;24973;47.178;15.316;2023-04-09T10:21:13;3.57;;;3.20;;
21798;SDS011;24973;47.178;15.316;2023-04-09T10:24:13;4.80;;;3.33;;
21798;SDS011;24973;47.178;15.316;2023-04-09T10:27:10;2.13;;;1.93;;
21798;SDS011;24973;47.178;15.316;2023-04-09T10:30:01;2.23;;;2.13;;
21798;SDS011;24973;47.178;15.316;2023-04-09T10:32:52;1.60;;;1.50;;
21798;SDS011;24973;47.178;15.316;2023-04-09T10:35:41;1.47;;;1.37;;
21798;SDS011;24973;47.178;15.316;2023-04-09T10:38:35;1.70;;;1.60;;
21798;SDS011;24973;47.178;15.316;2023-04-09T10:41:26;2.17;;;2.07;;
21798;SDS011;24973;47.178;15.316;2023-04-09T10:44:19;2.43;;;2.07;;
21798;SDS011;24973;47.178;15.316;2023-04-09T10:47:09;3.10;;;2.77;;
21798;SDS011;24973;47.178;15.316;2023-04-09T10:50:05;3.43;;;3.00;;
21798;SDS011;24973;47.178;15.316;2023-04-09T10:53:02;2.53;;;2.33;;
21798;SDS011;24973;47.178;15.316;2023-04-09T10:55:52;2.23;;;2.03;;
21798;SDS011;24973;47.178;15.316;2023-04-09T10:58:41;2.73;;;2.47;;
21798;SDS011;24973;47.178;15.316;2023-04-09T11:01:30;2.50;;;2.30;;
21798;SDS011;24973;47.178;15.316;2023-04-09T11:04:19;3.73;;;2.70;;
21798;SDS011;24973;47.178;15.316;2023-04-09T11:07:10;3.70;;;3.10;;
21798;SDS011;24973;47.178;15.316;2023-04-09T11:10:02;2.57;;;2.37;;
21798;SDS011;24973;47.178;15.316;2023-04-09T11:12:52;3.87;;;3.47;;
21798;SDS011;24973;47.178;15.316;2023-04-09T11:15:40;5.07;;;4.00;;
21798;SDS011;24973;47.178;15.316;2023-04-09T11:18:30;4.10;;;3.70;;
21798;SDS011;24973;47.178;15.316;2023-04-09T11:21:20;5.53;;;3.67;;
21798;SDS011;24973;47.178;15.316;2023-04-09T11:24:17;3.57;;;3.27;;
21798;SDS011;24973;47.178;15.316;2023-04-09T11:27:06;3.57;;;3.13;;
21798;SDS011;24973;47.178;15.316;2023-04-09T11:29:54;4.13;;;3.73;;
21798;SDS011;24973;47.178;15.316;2023-04-09T11:32:43;3.83;;;3.53;;
21798;SDS011;24973;47.178;15.316;2023-04-09T11:35:33;4.00;;;3.67;;
21798;SDS011;24973;47.178;15.316;2023-04-09T11:38:23;3.47;;;3.10;;
21798;SDS011;24973;47.178;15.316;2023-04-09T11:41:13;4.23;;;3.90;;
21798;SDS011;24973;47.178;15.316;2023-04-09T11:44:02;3.30;;;3.00;;
21798;SDS011;24973;47.178;15.316;2023-04-09T11:46:50;3.13;;;2.80;;
21798;SDS011;24973;47.178;15.316;2023-04-09T11:49:39;4.00;;;3.30;;
21798;SDS011;24973;47.178;15.316;2023-04-09T11:52:28;3.43;;;3.13;;
21798;SDS011;24973;47.178;15.316;2023-04-09T11:55:21;4.37;;;3.60;;
21798;SDS011;24973;47.178;15.316;2023-04-09T11:58:13;4.80;;;4.00;;
21798;SDS011;24973;47.178;15.316;2023-04-09T12:01:02;4.00;;;3.60;;
21798;SDS011;24973;47.178;15.316;2023-04-09T12:03:51;3.53;;;3.10;;
21798;SDS011;24973;47.178;15.316;2023-04-09T12:06:41;3.43;;;3.00;;
21798;SDS011;24973;47.178;15.316;2023-04-09T12:09:29;4.40;;;4.00;;
21798;SDS011;24973;47.178;15.316;2023-04-09T12:12:18;3.27;;;2.97;;
21798;SDS011;24973;47.178;15.316;2023-04-09T12:15:16;3.20;;;2.90;;
21798;SDS011;24973;47.178;15.316;2023-04-09T12:18:07;4.50;;;3.40;;
21798;SDS011;24973;47.178;15.316;2023-04-09T12:20:57;3.23;;;2.90;;
21798;SDS011;24973;47.178;15.316;2023-04-09T12:23:48;3.17;;;2.87;;
21798;SDS011;24973;47.178;15.316;2023-04-09T12:26:36;3.37;;;3.07;;
21798;SDS011;24973;47.178;15.316;2023-04-09T12:29:25;4.53;;;3.63;;
21798;SDS011;24973;47.178;15.316;2023-04-09T12:32:16;7.03;;;4.37;;
21798;SDS011;24973;47.178;15.316;2023-04-09T12:35:06;3.87;;;3.13;;
21798;SDS011;24973;47.178;15.316;2023-04-09T12:37:55;3.60;;;3.23;;
21798;SDS011;24973;47.178;15.316;2023-04-09T12:40:44;4.07;;;3.77;;
21798;SDS011;24973;47.178;15.316;2023-04-09T12:43:33;5.13;;;3.70;;
21798;SDS011;24973;47.178;15.316;2023-04-09T12:46:23;4.53;;;2.70;;
21798;SDS011;24973;47.178;15.316;2023-04-09T12:49:14;3.27;;;2.97;;
21798;SDS011;24973;47.178;15.316;2023-04-09T12:52:03;3.80;;;3.40;;
21798;SDS011;24973;47.178;15.316;2023-04-09T12:54:52;4.23;;;2.93;;
21798;SDS011;24973;47.178;15.316;2023-04-09T12:57:42;4.37;;;3.17;;
21798;SDS011;24973;47.178;15.316;2023-04-09T13:00:32;3.37;;;3.00;;
21798;SDS011;24973;47.178;15.316;2023-04-09T13:03:21;2.93;;;2.67;;
21798;SDS011;24973;47.178;15.316;2023-04-09T13:06:12;3.37;;;2.90;;
21798;SDS011;24973;47.178;15.316;2023-04-09T13:09:00;4.30;;;3.17;;
21798;SDS011;24973;47.178;15.316;2023-04-09T13:11:49;4.27;;;3.30;;
21798;SDS011;24973;47.178;15.316;2023-04-09T13:14:38;4.83;;;2.90;;
21798;SDS011;24973;47.178;15.316;2023-04-09T13:17:28;4.63;;;3.97;;
21798;SDS011;24973;47.178;15.316;2023-04-09T13:20:16;3.13;;;2.83;;
21798;SDS011;24973;47.178;15.316;2023-04-09T13:23:07;3.10;;;2.80;;
21798;SDS011;24973;47.178;15.316;2023-04-09T13:25:56;5.10;;;2.30;;
21798;SDS011;24973;47.178;15.316;2023-04-09T13:28:45;3.00;;;2.47;;
21798;SDS011;24973;47.178;15.316;2023-04-09T13:31:34;3.20;;;2.60;;
21798;SDS011;24973;47.178;15.316;2023-04-09T13:34:23;3.10;;;2.60;;
21798;SDS011;24973;47.178;15.316;2023-04-09T13:37:12;3.93;;;3.57;;
21798;SDS011;24973;47.178;15.316;2023-04-09T13:40:02;3.60;;;2.63;;
21798;SDS011;24973;47.178;15.316;2023-04-09T13:42:55;2.80;;;2.50;;
21798;SDS011;24973;47.178;15.316;2023-04-09T13:45:43;2.13;;;1.93;;
21798;SDS011;24973;47.178;15.316;2023-04-09T13:48:32;2.50;;;2.30;;
21798;SDS011;24973;47.178;15.316;2023-04-09T13:51:21;4.43;;;2.13;;
21798;SDS011;24973;47.178;15.316;2023-04-09T13:54:10;6.37;;;2.90;;
21798;SDS011;24973;47.178;15.316;2023-04-09T13:57:00;2.70;;;2.50;;
21798;SDS011;24973;47.178;15.316;2023-04-09T13:59:49;3.33;;;3.03;;
21798;SDS011;24973;47.178;15.316;2023-04-09T14:02:37;2.83;;;2.13;;
21798;SDS011;24973;47.178;15.316;2023-04-09T14:05:26;2.47;;;1.80;;
21798;SDS011;24973;47.178;15.316;2023-04-09T14:08:15;5.23;;;3.83;;
21798;SDS011;24973;47.178;15.316;2023-04-09T14:11:04;5.33;;;3.40;;
21798;SDS011;24973;47.178;15.316;2023-04-09T14:13:54;2.53;;;2.33;;
21798;SDS011;24973;47.178;15.316;2023-04-09T14:16:43;2.53;;;2.13;;
21798;SDS011;24973;47.178;15.316;2023-04-09T14:19:32;1.60;;;1.50;;
21798;SDS011;24973;47.178;15.316;2023-04-09T14:22:21;1.57;;;1.43;;
21798;SDS011;24973;47.178;15.316;2023-04-09T14:25:09;2.50;;;2.00;;
21798;SDS011;24973;47.178;15.316;2023-04-09T14:27:59;2.03;;;1.83;;
21798;SDS011;24973;47.178;15.316;2023-04-09T14:30:49;1.67;;;1.47;;
21798;SDS011;24973;47.178;15.316;2023-04-09T14:33:38;1.77;;;1.63;;
21798;SDS011;24973;47.178;15.316;2023-04-09T14:36:26;1.70;;;1.23;;
21798;SDS011;24973;47.178;15.316;2023-04-09T14:39:15;1.70;;;1.60;;
21798;SDS011;24973;47.178;15.316;2023-04-09T14:42:04;1.30;;;1.20;;
21798;SDS011;24973;47.178;15.316;2023-04-09T14:44:53;1.53;;;1.43;;
21798;SDS011;24973;47.178;15.316;2023-04-09T14:47:43;1.53;;;1.43;;
21798;SDS011;24973;47.178;15.316;2023-04-09T14:50:32;1.33;;;1.23;;
21798;SDS011;24973;47.178;15.316;2023-04-09T14:53:22;1.63;;;1.53;;
21798;SDS011;24973;47.178;15.316;2023-04-09T14:56:10;1.30;;;1.20;;
21798;SDS011;24973;47.178;15.316;2023-04-09T14:58:59;1.43;;;1.33;;
21798;SDS011;24973;47.178;15.316;2023-04-09T15:01:48;3.17;;;1.30;;
21798;SDS011;24973;47.178;15.316;2023-04-09T15:04:38;19.20;;;7.10;;
21798;SDS011;24973;47.178;15.316;2023-04-09T15:07:27;4.23;;;3.37;;
21798;SDS011;24973;47.178;15.316;2023-04-09T15:10:15;2.00;;;1.77;;
21798;SDS011;24973;47.178;15.316;2023-04-09T15:13:04;2.43;;;2.23;;
21798;SDS011;24973;47.178;15.316;2023-04-09T15:15:53;3.70;;;2.63;;
21798;SDS011;24973;47.178;15.316;2023-04-09T15:18:42;3.50;;;2.87;;
21798;SDS011;24973;47.178;15.316;2023-04-09T15:21:33;2.80;;;2.30;;
21798;SDS011;24973;47.178;15.316;2023-04-09T15:24:22;5.53;;;3.43;;
21798;SDS011;24973;47.178;15.316;2023-04-09T15:27:10;3.23;;;2.97;;
21798;SDS011;24973;47.178;15.316;2023-04-09T15:29:59;2.47;;;2.27;;
21798;SDS011;24973;47.178;15.316;2023-04-09T15:32:48;1.43;;;1.33;;
21798;SDS011;24973;47.178;15.316;2023-04-09T15:35:36;2.00;;;1.80;;
21798;SDS011;24973;47.178;15.316;2023-04-09T15:38:27;1.93;;;1.70;;
21798;SDS011;24973;47.178;15.316;2023-04-09T15:41:15;2.07;;;1.80;;
21798;SDS011;24973;47.178;15.316;2023-04-09T15:44:04;1.33;;;1.23;;
21798;SDS011;24973;47.178;15.316;2023-04-09T15:46:53;1.80;;;1.70;;
21798;SDS011;24973;47.178;15.316;2023-04-09T15:49:42;1.60;;;1.27;;
21798;SDS011;24973;47.178;15.316;2023-04-09T15:52:31;2.53;;;1.97;;
21798;SDS011;24973;47.178;15.316;2023-04-09T15:55:21;1.80;;;1.70;;
21798;SDS011;24973;47.178;15.316;2023-04-09T15:58:11;1.70;;;1.60;;
21798;SDS011;24973;47.178;15.316;2023-04-09T16:01:04;2.47;;;2.00;;
21798;SDS011;24973;47.178;15.316;2023-04-09T16:03:53;1.90;;;1.80;;
21798;SDS011;24973;47.178;15.316;2023-04-09T16:06:42;1.97;;;1.70;;
21798;SDS011;24973;47.178;15.316;2023-04-09T16:09:31;2.67;;;2.20;;
21798;SDS011;24973;47.178;15.316;2023-04-09T16:12:21;2.37;;;2.10;;
21798;SDS011;24973;47.178;15.316;2023-04-09T16:15:10;3.20;;;2.90;;
21798;SDS011;24973;47.178;15.316;2023-04-09T16:17:59;1.73;;;1.63;;
21798;SDS011;24973;47.178;15.316;2023-04-09T16:20:50;3.30;;;2.57;;
21798;SDS011;24973;47.178;15.316;2023-04-09T16:23:40;2.77;;;2.57;;
21798;SDS011;24973;47.178;15.316;2023-04-09T16:26:29;2.60;;;2.20;;
21798;SDS011;24973;47.178;15.316;2023-04-09T16:29:19;2.13;;;1.93;;
21798;SDS011;24973;47.178;15.316;2023-04-09T16:32:07;2.40;;;2.20;;
21798;SDS011;24973;47.178;15.316;2023-04-09T16:34:56;2.67;;;1.87;;